createdAt,value
2022-08-24T00:01:57.188Z,95.80
2022-08-24T00:04:25.755Z,95.60
2022-08-24T00:06:54.390Z,95.60
2022-08-24T00:09:22.519Z,95.70
2022-08-24T00:11:52.048Z,95.60
2022-08-24T00:14:20.752Z,95.60
2022-08-24T00:16:48.873Z,95.80
2022-08-24T00:19:17.441Z,96.00
2022-08-24T00:21:45.555Z,95.80
2022-08-24T00:24:14.626Z,95.80
2022-08-24T00:26:42.891Z,95.70
2022-08-24T00:29:12.912Z,95.70
2022-08-24T00:31:41.590Z,95.60
2022-08-24T00:34:10.526Z,95.60
2022-08-24T00:36:38.673Z,95.60
2022-08-24T00:39:07.974Z,95.60
2022-08-24T00:41:39.223Z,95.70
2022-08-24T00:44:07.517Z,95.70
2022-08-24T00:46:45.187Z,95.50
2022-08-24T00:49:27.967Z,95.40
2022-08-24T00:52:04.546Z,95.50
2022-08-24T00:54:35.123Z,95.90
2022-08-24T00:57:07.955Z,95.80
2022-08-24T00:59:40.793Z,96.00
2022-08-24T01:02:19.889Z,96.10
2022-08-24T01:04:53.393Z,96.30
2022-08-24T01:07:23.075Z,96.50
2022-08-24T01:09:52.195Z,96.70
2022-08-24T01:12:21.020Z,96.80
2022-08-24T01:14:49.523Z,96.90
2022-08-24T01:17:38.855Z,97.00
2022-08-24T01:20:11.036Z,97.00
2022-08-24T01:22:53.457Z,97.00
2022-08-24T01:25:23.982Z,97.10
2022-08-24T01:27:52.925Z,97.20
2022-08-24T01:30:21.968Z,97.30
2022-08-24T01:33:06.969Z,97.30
2022-08-24T01:35:36.477Z,97.30
2022-08-24T01:38:09.821Z,97.40
2022-08-24T01:40:45.708Z,97.50
2022-08-24T01:43:15.058Z,97.60
2022-08-24T01:45:43.386Z,97.70
2022-08-24T01:48:11.778Z,97.80
2022-08-24T01:50:39.835Z,97.90
2022-08-24T01:53:10.859Z,98.00
2022-08-24T01:55:41.556Z,98.00
2022-08-24T01:58:10.200Z,98.00
2022-08-24T02:00:38.835Z,98.00
2022-08-24T02:03:07.248Z,98.00
2022-08-24T02:05:36.519Z,97.60
2022-08-24T02:08:05.176Z,97.50
2022-08-24T02:10:33.759Z,97.60
2022-08-24T02:13:04.934Z,97.50
2022-08-24T02:15:36.452Z,97.50
2022-08-24T02:18:05.216Z,97.70
2022-08-24T02:20:33.956Z,97.50
2022-08-24T02:23:02.284Z,97.60
2022-08-24T02:25:30.970Z,97.60
2022-08-24T02:27:59.786Z,97.60
2022-08-24T02:30:29.871Z,97.70
2022-08-24T02:32:59.047Z,97.80
2022-08-24T02:35:28.528Z,98.00
2022-08-24T02:37:57.109Z,98.20
2022-08-24T02:40:25.482Z,98.30
2022-08-24T02:42:53.998Z,98.40
2022-08-24T02:45:23.877Z,98.30
2022-08-24T02:47:53.723Z,98.50
2022-08-24T02:50:24.018Z,98.40
2022-08-24T02:52:52.404Z,97.80
2022-08-24T02:55:21.193Z,97.90
2022-08-24T02:57:52.662Z,98.00
2022-08-24T03:00:22.415Z,98.20
2022-08-24T03:02:56.151Z,98.30
2022-08-24T03:05:25.005Z,98.40
2022-08-24T03:07:53.883Z,98.40
2022-08-24T03:10:23.675Z,98.70
2022-08-24T03:12:52.256Z,98.80
2022-08-24T03:15:22.744Z,98.80
2022-08-24T03:17:51.529Z,98.80
2022-08-24T03:20:22.759Z,98.90
2022-08-24T03:22:51.784Z,99.00
2022-08-24T03:25:21.570Z,99.10
2022-08-24T03:27:49.877Z,99.30
2022-08-24T03:30:19.709Z,99.40
2022-08-24T03:32:50.139Z,99.40
2022-08-24T03:35:19.242Z,99.40
2022-08-24T03:37:49.434Z,99.30
2022-08-24T03:40:22.926Z,99.30
2022-08-24T03:42:56.253Z,99.30
2022-08-24T03:45:24.676Z,99.40
2022-08-24T03:47:53.248Z,99.50
2022-08-24T03:50:22.670Z,99.50
2022-08-24T03:52:52.879Z,99.30
2022-08-24T03:55:21.395Z,99.30
2022-08-24T03:57:49.493Z,99.40
2022-08-24T04:00:18.369Z,99.50
2022-08-24T04:02:55.339Z,99.70
2022-08-24T04:05:26.024Z,99.90
2022-08-24T04:07:55.629Z,99.80
2022-08-24T04:10:24.661Z,99.80
2022-08-24T04:13:01.523Z,99.90
2022-08-24T04:15:32.154Z,99.90
2022-08-24T04:18:00.426Z,99.90
2022-08-24T04:20:28.734Z,99.90
2022-08-24T04:22:58.801Z,99.90
2022-08-24T04:25:27.101Z,99.90
2022-08-24T04:27:55.240Z,99.90
2022-08-24T04:30:24.660Z,99.90
2022-08-24T04:33:14.865Z,99.90
2022-08-24T04:35:48.206Z,99.90
2022-08-24T04:38:20.170Z,99.90
2022-08-24T04:41:06.118Z,99.90
2022-08-24T04:43:35.737Z,99.90
2022-08-24T04:46:07.326Z,99.90
2022-08-24T04:48:36.106Z,99.90
2022-08-24T04:51:09.009Z,99.90
2022-08-24T04:53:41.480Z,99.90
2022-08-24T04:56:13.015Z,99.90
2022-08-24T04:58:41.896Z,99.90
2022-08-24T05:01:11.183Z,99.90
2022-08-24T05:03:39.603Z,99.90
2022-08-24T05:06:08.362Z,99.90
2022-08-24T05:08:36.643Z,99.90
2022-08-24T05:11:08.263Z,99.90
2022-08-24T05:13:39.158Z,99.90
2022-08-24T05:16:08.854Z,99.90
2022-08-24T05:18:37.862Z,99.90
2022-08-24T05:21:08.394Z,99.90
2022-08-24T05:23:37.246Z,99.90
2022-08-24T05:26:10.783Z,99.90
2022-08-24T05:28:39.975Z,99.90
2022-08-24T05:31:09.653Z,99.90
2022-08-24T05:33:39.123Z,99.90
2022-08-24T05:36:15.543Z,99.80
2022-08-24T05:38:43.686Z,99.30
2022-08-24T05:41:13.594Z,99.20
2022-08-24T05:43:43.506Z,99.00
2022-08-24T05:46:11.899Z,98.40
2022-08-24T05:48:40.144Z,98.20
2022-08-24T05:51:09.970Z,98.10
2022-08-24T05:53:47.197Z,97.80
2022-08-24T05:56:18.785Z,97.80
2022-08-24T05:58:47.933Z,97.60
2022-08-24T06:01:17.523Z,97.60
2022-08-24T06:03:46.286Z,97.60
2022-08-24T06:06:16.978Z,97.00
2022-08-24T06:08:48.059Z,96.80
2022-08-24T06:11:29.786Z,96.80
2022-08-24T06:14:02.523Z,96.90
2022-08-24T06:16:37.247Z,96.50
2022-08-24T06:19:06.851Z,96.30
2022-08-24T06:21:35.085Z,95.70
2022-08-24T06:24:03.482Z,94.70
2022-08-24T06:26:51.178Z,94.30
2022-08-24T06:29:20.026Z,94.20
2022-08-24T06:31:54.609Z,93.80
2022-08-24T06:34:26.037Z,95.20
2022-08-24T06:36:54.886Z,94.30
2022-08-24T06:39:25.062Z,93.90
2022-08-24T06:41:56.464Z,93.10
2022-08-24T06:44:31.880Z,93.20
2022-08-24T06:47:17.869Z,92.50
2022-08-24T06:49:46.081Z,92.70
2022-08-24T06:52:14.166Z,92.30
2022-08-24T06:54:43.086Z,91.80
2022-08-24T06:57:12.561Z,91.60
2022-08-24T06:59:43.044Z,91.40
2022-08-24T07:02:12.932Z,91.40
2022-08-24T07:04:41.249Z,91.10
2022-08-24T07:07:11.867Z,91.10
2022-08-24T07:09:40.368Z,91.10
2022-08-24T07:12:08.986Z,91.10
2022-08-24T07:14:39.675Z,91.20
2022-08-24T07:17:08.072Z,91.00
2022-08-24T07:19:36.620Z,90.90
2022-08-24T07:22:06.202Z,91.00
2022-08-24T07:24:34.502Z,91.00
2022-08-24T07:27:02.626Z,91.00
2022-08-24T07:29:47.355Z,90.90
2022-08-24T07:32:20.517Z,90.80
2022-08-24T07:34:50.591Z,90.90
2022-08-24T07:37:18.793Z,91.00
2022-08-24T07:39:49.965Z,90.90
2022-08-24T07:42:29.566Z,90.90
2022-08-24T07:45:01.096Z,91.00
2022-08-24T07:47:43.067Z,90.90
2022-08-24T07:50:41.973Z,90.90
2022-08-24T07:53:14.898Z,90.70
2022-08-24T07:55:52.607Z,90.80
2022-08-24T07:58:21.353Z,90.70
2022-08-24T08:00:50.082Z,90.70
2022-08-24T08:03:20.855Z,90.70
2022-08-24T08:05:49.540Z,90.60
2022-08-24T08:08:17.928Z,90.80
2022-08-24T08:10:46.667Z,90.80
2022-08-24T08:13:15.540Z,90.80
2022-08-24T08:15:44.130Z,90.90
2022-08-24T08:18:13.425Z,90.90
2022-08-24T08:20:44.374Z,90.90
2022-08-24T08:23:30.942Z,90.90
2022-08-24T08:26:08.392Z,90.80
2022-08-24T08:28:55.129Z,90.90
2022-08-24T08:31:24.895Z,90.70
2022-08-24T08:33:56.376Z,90.70
2022-08-24T08:36:26.911Z,90.70
2022-08-24T08:38:55.464Z,90.70
2022-08-24T08:42:05.249Z,90.50
2022-08-24T08:44:53.888Z,90.40
2022-08-24T08:47:43.844Z,90.30
2022-08-24T08:50:19.060Z,90.00
2022-08-24T08:53:15.008Z,89.80
2022-08-24T08:55:49.643Z,89.50
2022-08-24T08:58:40.853Z,89.10
2022-08-24T09:01:32.689Z,89.00
2022-08-24T09:04:39.349Z,88.50
2022-08-24T09:07:19.895Z,87.90
2022-08-24T09:10:12.635Z,87.60
2022-08-24T09:12:54.979Z,87.70
2022-08-24T09:15:58.747Z,86.90
2022-08-24T09:18:41.914Z,86.80
2022-08-24T09:21:26.751Z,86.50
2022-08-24T09:24:02.711Z,86.70
2022-08-24T09:26:40.809Z,86.60
2022-08-24T09:29:16.508Z,86.20
2022-08-24T09:32:04.414Z,85.40
2022-08-24T09:34:40.021Z,85.10
2022-08-24T09:37:31.529Z,84.60
2022-08-24T09:40:03.273Z,84.00
2022-08-24T09:43:06.294Z,83.40
2022-08-24T09:46:02.271Z,83.40
2022-08-24T09:48:56.121Z,83.50
2022-08-24T09:51:55.197Z,83.50
2022-08-24T09:54:52.831Z,83.00
2022-08-24T09:57:59.336Z,82.90
2022-08-24T10:00:31.381Z,82.50
2022-08-24T10:03:16.852Z,82.90
2022-08-24T10:06:02.150Z,82.10
2022-08-24T10:08:44.204Z,82.10
2022-08-24T10:11:22.199Z,81.60
2022-08-24T10:16:59.909Z,81.60
2022-08-24T10:19:48.940Z,81.40
2022-08-24T10:22:29.261Z,81.50
2022-08-24T10:25:24.995Z,81.40
2022-08-24T10:28:04.431Z,82.20
2022-08-24T10:30:55.069Z,81.00
2022-08-24T10:33:26.768Z,80.40
2022-08-24T10:36:30.262Z,79.10
2022-08-24T10:39:40.690Z,79.30
2022-08-24T10:42:56.863Z,79.60
2022-08-24T10:46:02.234Z,78.90
2022-08-24T10:49:09.089Z,78.70
2022-08-24T10:52:00.687Z,78.50
2022-08-24T10:54:29.752Z,78.20
2022-08-24T10:57:10.302Z,78.30
2022-08-24T10:59:49.924Z,78.20
2022-08-24T11:02:31.607Z,77.30
2022-08-24T11:05:01.761Z,76.90
2022-08-24T11:07:31.321Z,77.00
2022-08-24T11:10:02.511Z,76.80
2022-08-24T11:12:32.964Z,76.40
2022-08-24T11:15:03.313Z,76.70
2022-08-24T11:17:34.860Z,76.70
2022-08-24T11:20:26.334Z,76.30
2022-08-24T11:23:07.838Z,76.10
2022-08-24T11:25:40.340Z,75.20
2022-08-24T11:28:22.720Z,75.10
2022-08-24T11:30:51.151Z,75.30
2022-08-24T11:33:32.964Z,74.00
2022-08-24T11:36:03.071Z,74.20
2022-08-24T11:38:34.981Z,74.00
2022-08-24T11:41:08.568Z,74.10
2022-08-24T11:43:53.417Z,73.70
2022-08-24T11:46:32.888Z,73.40
2022-08-24T11:49:10.761Z,73.50
2022-08-24T11:51:50.555Z,72.50
2022-08-24T11:54:28.390Z,73.30
2022-08-24T11:57:11.100Z,73.20
2022-08-24T11:59:46.575Z,72.80
2022-08-24T12:02:20.608Z,73.20
2022-08-24T12:04:58.767Z,71.90
2022-08-24T12:07:44.827Z,71.80
2022-08-24T12:10:32.129Z,71.80
2022-08-24T12:13:06.367Z,71.10
2022-08-24T12:15:43.658Z,71.30
2022-08-24T12:18:22.050Z,71.10
2022-08-24T12:20:53.988Z,70.70
2022-08-24T12:23:28.904Z,70.40
2022-08-24T12:26:02.885Z,70.00
2022-08-24T12:28:36.594Z,70.00
2022-08-24T12:31:12.477Z,69.50
2022-08-24T12:33:44.847Z,69.20
2022-08-24T12:36:22.357Z,69.20
2022-08-24T12:39:02.148Z,68.40
2022-08-24T12:41:35.760Z,67.60
2022-08-24T12:44:11.746Z,67.90
2022-08-24T12:46:43.010Z,68.00
2022-08-24T12:49:19.353Z,67.50
2022-08-24T12:52:14.807Z,66.70
2022-08-24T12:55:22.086Z,65.40
2022-08-24T12:58:31.040Z,63.60
2022-08-24T13:00:53.909Z,63.70
2022-08-24T13:03:31.869Z,62.70
2022-08-24T13:06:03.343Z,62.50
2022-08-24T13:08:38.255Z,62.70
2022-08-24T13:11:13.949Z,63.60
2022-08-24T13:13:47.952Z,62.80
2022-08-24T13:16:45.671Z,63.10
2022-08-24T13:19:18.210Z,61.70
2022-08-24T13:21:55.949Z,61.50
2022-08-24T13:25:01.706Z,61.40
2022-08-24T13:28:08.892Z,61.10
2022-08-24T13:31:00.711Z,60.90
2022-08-24T13:33:34.988Z,60.40
2022-08-24T13:36:29.841Z,61.00
2022-08-24T13:39:09.391Z,60.00
2022-08-24T13:42:05.002Z,59.30
2022-08-24T13:44:50.840Z,59.40
2022-08-24T13:47:23.475Z,58.50
2022-08-24T13:50:04.013Z,57.60
2022-08-24T13:52:45.685Z,57.00
2022-08-24T13:55:37.134Z,57.10
2022-08-24T13:58:16.213Z,57.10
2022-08-24T14:00:50.075Z,56.50
2022-08-24T14:03:52.375Z,54.70
2022-08-24T14:06:28.771Z,54.80
2022-08-24T14:09:18.079Z,53.80
2022-08-24T14:12:01.988Z,53.80
2022-08-24T14:14:53.973Z,53.80
2022-08-24T14:17:52.825Z,53.40
2022-08-24T14:20:55.809Z,52.90
2022-08-24T14:23:48.140Z,54.90
2022-08-24T14:26:54.053Z,53.90
2022-08-24T14:29:42.161Z,53.00
2022-08-24T14:32:44.496Z,53.50
2022-08-24T14:35:37.349Z,51.50
2022-08-24T14:38:32.053Z,51.70
2022-08-24T14:41:11.509Z,51.40
2022-08-24T14:44:06.835Z,51.70
2022-08-24T14:46:44.698Z,51.80
2022-08-24T14:49:21.525Z,51.10
2022-08-24T14:52:40.874Z,50.70
2022-08-24T14:55:17.409Z,48.60
2022-08-24T14:58:28.906Z,47.80
2022-08-24T15:01:13.829Z,46.40
2022-08-24T15:04:04.082Z,46.20
2022-08-24T15:06:46.589Z,46.20
2022-08-24T15:09:26.584Z,44.40
2022-08-24T15:12:12.047Z,44.40
2022-08-24T15:14:47.929Z,43.10
2022-08-24T15:17:24.178Z,42.10
2022-08-24T15:20:01.420Z,42.00
2022-08-24T15:22:44.130Z,41.10
2022-08-24T15:25:19.924Z,41.50
2022-08-24T15:27:55.700Z,39.90
2022-08-24T15:30:27.390Z,39.70
2022-08-24T15:33:05.764Z,39.50
2022-08-24T15:35:37.745Z,39.10
2022-08-24T15:38:21.373Z,38.80
2022-08-24T15:40:52.651Z,39.80
2022-08-24T15:43:22.461Z,39.90
2022-08-24T15:45:53.087Z,41.10
2022-08-24T15:48:25.860Z,42.10
2022-08-24T15:50:57.323Z,43.10
2022-08-24T15:53:37.957Z,44.10
2022-08-24T15:56:35.302Z,45.20
2022-08-24T15:59:12.054Z,45.50
2022-08-24T16:01:57.835Z,46.00
2022-08-24T16:04:43.799Z,46.80
2022-08-24T16:07:23.934Z,46.70
2022-08-24T16:10:05.177Z,46.60
2022-08-24T16:12:33.829Z,47.10
2022-08-24T16:15:15.848Z,47.30
2022-08-24T16:17:51.266Z,47.20
2022-08-24T16:20:34.619Z,47.40
2022-08-24T16:23:07.517Z,47.80
2022-08-24T16:25:40.998Z,47.60
2022-08-24T16:28:13.907Z,47.70
2022-08-24T16:30:50.775Z,47.70
2022-08-24T16:33:43.329Z,48.20
2022-08-24T16:36:15.833Z,48.90
2022-08-24T16:38:50.153Z,48.20
2022-08-24T16:41:21.393Z,48.70
2022-08-24T16:43:50.448Z,48.80
2022-08-24T16:46:22.561Z,48.00
2022-08-24T16:48:51.553Z,47.80
2022-08-24T16:51:19.943Z,47.90
2022-08-24T16:53:49.734Z,48.00
2022-08-24T16:56:18.029Z,48.80
2022-08-24T16:58:48.224Z,48.70
2022-08-24T17:01:17.158Z,48.20
2022-08-24T17:03:45.520Z,48.30
2022-08-24T17:06:14.851Z,48.50
2022-08-24T17:08:43.572Z,49.70
2022-08-24T17:11:13.405Z,49.10
2022-08-24T17:13:50.498Z,49.60
2022-08-24T17:16:20.527Z,49.20
2022-08-24T17:18:49.624Z,49.40
2022-08-24T17:21:18.084Z,49.10
2022-08-24T17:23:47.110Z,49.10
2022-08-24T17:26:21.563Z,49.00
2022-08-24T17:28:52.325Z,49.10
2022-08-24T17:31:20.811Z,49.00
2022-08-24T17:33:49.259Z,49.20
2022-08-24T17:36:19.554Z,50.30
2022-08-24T17:38:55.218Z,50.00
2022-08-24T17:41:26.576Z,50.30
2022-08-24T17:43:55.511Z,50.10
2022-08-24T17:46:24.301Z,51.00
2022-08-24T17:48:52.995Z,50.80
2022-08-24T17:51:21.253Z,51.10
2022-08-24T17:53:49.573Z,51.80
2022-08-24T17:56:18.485Z,51.10
2022-08-24T17:59:05.433Z,51.60
2022-08-24T18:01:33.871Z,51.60
2022-08-24T18:04:02.351Z,52.20
2022-08-24T18:06:30.613Z,52.30
2022-08-24T18:09:03.821Z,53.30
2022-08-24T18:11:32.082Z,52.90
2022-08-24T18:14:02.435Z,55.20
2022-08-24T18:16:30.590Z,55.10
2022-08-24T18:18:59.666Z,53.00
2022-08-24T18:21:27.974Z,52.70
2022-08-24T18:23:56.078Z,53.00
2022-08-24T18:26:28.051Z,52.70
2022-08-24T18:29:00.302Z,52.90
2022-08-24T18:31:32.111Z,53.10
2022-08-24T18:34:00.248Z,53.10
2022-08-24T18:36:28.678Z,53.30
2022-08-24T18:38:56.996Z,53.30
2022-08-24T18:41:27.503Z,53.50
2022-08-24T18:43:55.903Z,54.00
2022-08-24T18:46:24.931Z,54.30
2022-08-24T18:48:54.517Z,54.50
2022-08-24T18:51:24.052Z,54.60
2022-08-24T18:54:02.864Z,55.10
2022-08-24T18:56:30.987Z,55.30
2022-08-24T18:58:59.183Z,55.70
2022-08-24T19:01:29.677Z,56.20
2022-08-24T19:03:59.578Z,56.70
2022-08-24T19:06:27.755Z,56.60
2022-08-24T19:08:55.883Z,57.10
2022-08-24T19:11:25.803Z,57.20
2022-08-24T19:13:53.938Z,57.90
2022-08-24T19:16:22.629Z,58.20
2022-08-24T19:18:52.075Z,58.60
2022-08-24T19:21:21.794Z,58.60
2022-08-24T19:23:50.065Z,59.00
2022-08-24T19:26:18.782Z,59.60
2022-08-24T19:28:47.083Z,60.00
2022-08-24T19:31:15.631Z,60.00
2022-08-24T19:33:46.733Z,60.10
2022-08-24T19:36:18.390Z,60.90
2022-08-24T19:38:47.906Z,60.70
2022-08-24T19:41:17.615Z,60.30
2022-08-24T19:44:21.197Z,60.80
2022-08-24T19:46:55.972Z,61.10
2022-08-24T19:49:24.771Z,61.90
2022-08-24T19:51:53.776Z,61.20
2022-08-24T19:54:24.509Z,61.30
2022-08-24T19:56:54.363Z,61.40
2022-08-24T19:59:28.052Z,61.70
2022-08-24T20:01:56.216Z,62.00
2022-08-24T20:04:24.404Z,62.80
2022-08-24T20:06:53.338Z,62.20
2022-08-24T20:09:23.646Z,62.20
2022-08-24T20:11:51.920Z,62.80
2022-08-24T20:14:20.091Z,63.10
2022-08-24T20:16:48.611Z,62.90
2022-08-24T20:19:16.764Z,63.30
2022-08-24T20:21:44.857Z,63.70
2022-08-24T20:24:12.912Z,66.10
2022-08-24T20:26:45.231Z,66.60
2022-08-24T20:29:15.126Z,65.70
2022-08-24T20:31:45.295Z,65.60
2022-08-24T20:34:13.672Z,65.20
2022-08-24T20:36:45.951Z,65.40
2022-08-24T20:39:15.295Z,65.40
2022-08-24T20:41:45.324Z,65.80
2022-08-24T20:44:13.598Z,65.90
2022-08-24T20:46:42.762Z,65.90
2022-08-24T20:49:16.906Z,66.00
2022-08-24T20:51:45.235Z,66.10
2022-08-24T20:54:14.661Z,66.00
2022-08-24T20:56:46.721Z,65.90
2022-08-24T20:59:16.497Z,66.00
2022-08-24T21:01:45.813Z,66.40
2022-08-24T21:04:14.412Z,66.40
2022-08-24T21:06:44.220Z,66.10
2022-08-24T21:09:14.325Z,65.90
2022-08-24T21:11:43.528Z,65.90
2022-08-24T21:14:13.716Z,66.10
2022-08-24T21:16:43.476Z,65.90
2022-08-24T21:19:17.706Z,65.60
2022-08-24T21:21:48.126Z,65.60
2022-08-24T21:24:17.018Z,65.60
2022-08-24T21:26:45.479Z,65.70
2022-08-24T21:29:15.116Z,65.70
2022-08-24T21:32:03.336Z,65.50
2022-08-24T21:34:42.597Z,65.80
2022-08-24T21:37:12.817Z,65.70
2022-08-24T21:39:40.981Z,66.00
2022-08-24T21:42:10.199Z,66.00
2022-08-24T21:44:40.227Z,66.20
2022-08-24T21:47:08.834Z,66.40
2022-08-24T21:49:36.923Z,65.80
2022-08-24T21:52:06.896Z,66.10
2022-08-24T21:54:36.187Z,65.40
2022-08-24T21:57:06.466Z,65.20
2022-08-24T21:59:35.190Z,65.20
2022-08-24T22:02:05.469Z,65.30
2022-08-24T22:04:33.803Z,65.60
2022-08-24T22:07:02.400Z,64.60
2022-08-24T22:09:30.743Z,64.70
2022-08-24T22:11:59.888Z,65.20
2022-08-24T22:14:28.018Z,65.40
2022-08-24T22:16:58.990Z,65.60
2022-08-24T22:19:28.517Z,65.30
2022-08-24T22:21:56.845Z,65.40
2022-08-24T22:24:24.995Z,65.20
2022-08-24T22:26:53.049Z,65.30
2022-08-24T22:29:21.095Z,64.80
2022-08-24T22:31:49.616Z,65.40
2022-08-24T22:34:20.732Z,65.20
2022-08-24T22:36:51.294Z,65.70
2022-08-24T22:39:19.950Z,65.70
2022-08-24T22:41:48.037Z,65.90
2022-08-24T22:44:22.054Z,66.60
2022-08-24T22:46:52.462Z,66.80
2022-08-24T22:49:23.275Z,67.00
2022-08-24T22:51:52.980Z,67.20
2022-08-24T22:54:23.309Z,67.20
2022-08-24T22:56:54.028Z,67.50
2022-08-24T22:59:24.247Z,67.40
2022-08-24T23:01:54.786Z,67.70
2022-08-24T23:04:25.358Z,67.30
2022-08-24T23:23:24.361Z,66.80
2022-08-24T23:25:52.476Z,67.30
2022-08-24T23:28:20.758Z,67.30
2022-08-24T23:30:48.961Z,67.30
2022-08-24T23:33:17.282Z,67.20
2022-08-24T23:35:45.489Z,67.20
2022-08-24T23:38:13.627Z,67.30
2022-08-24T23:40:44.254Z,67.40
2022-08-24T23:43:12.385Z,67.50
2022-08-24T23:45:41.414Z,67.50
2022-08-24T23:48:09.519Z,67.50
2022-08-24T23:50:37.959Z,67.40
2022-08-24T23:53:06.054Z,67.30
2022-08-24T23:55:34.413Z,67.20
2022-08-24T23:58:04.199Z,67.20
